createdAt,value
2019-01-30T00:00:01.445Z,19.23
2019-01-30T00:02:28.991Z,21.70
2019-01-30T00:04:56.463Z,21.03
2019-01-30T00:07:23.985Z,21.70
2019-01-30T00:09:51.461Z,21.00
2019-01-30T00:12:18.924Z,21.30
2019-01-30T00:14:46.430Z,21.87
2019-01-30T00:17:13.897Z,20.37
2019-01-30T00:19:41.369Z,20.63
2019-01-30T00:22:08.875Z,20.53
2019-01-30T00:24:36.350Z,21.00
2019-01-30T00:27:04.108Z,20.50
2019-01-30T00:29:31.647Z,20.00
2019-01-30T00:31:59.151Z,21.53
2019-01-30T00:34:26.693Z,20.37
2019-01-30T00:36:54.256Z,21.67
2019-01-30T00:39:21.769Z,21.23
2019-01-30T00:41:49.237Z,20.13
2019-01-30T00:44:16.720Z,18.53
2019-01-30T00:46:44.236Z,17.80
2019-01-30T00:49:11.781Z,17.23
2019-01-30T00:51:39.251Z,19.07
2019-01-30T00:54:06.750Z,17.90
2019-01-30T00:56:34.285Z,17.50
2019-01-30T00:59:01.782Z,17.90
2019-01-30T01:01:29.266Z,19.80
2019-01-30T01:03:56.802Z,20.23
2019-01-30T01:06:24.308Z,20.20
2019-01-30T01:08:51.788Z,18.93
2019-01-30T01:11:19.262Z,19.23
2019-01-30T01:13:46.782Z,18.27
2019-01-30T01:16:14.321Z,20.60
2019-01-30T01:18:41.788Z,18.23
2019-01-30T01:21:09.313Z,18.93
2019-01-30T01:23:36.854Z,17.97
2019-01-30T01:26:04.392Z,20.33
2019-01-30T01:28:31.907Z,20.20
2019-01-30T01:30:59.380Z,18.50
2019-01-30T01:33:27.719Z,18.60
2019-01-30T01:35:55.297Z,18.53
2019-01-30T01:38:22.863Z,19.23
2019-01-30T01:40:50.348Z,19.57
2019-01-30T01:43:17.859Z,18.77
2019-01-30T01:45:45.329Z,18.87
2019-01-30T01:48:12.809Z,19.20
2019-01-30T01:50:40.312Z,20.40
2019-01-30T01:53:07.861Z,18.53
2019-01-30T01:55:35.328Z,18.77
2019-01-30T01:58:02.837Z,18.73
2019-01-30T02:00:35.651Z,18.57
2019-01-30T02:02:59.538Z,18.63
2019-01-30T02:05:27.022Z,18.40
2019-01-30T02:07:54.522Z,18.43
2019-01-30T02:10:23.323Z,21.10
2019-01-30T02:12:50.794Z,19.63
2019-01-30T02:15:19.294Z,18.13
2019-01-30T02:17:46.819Z,20.00
2019-01-30T02:20:18.439Z,19.33
2019-01-30T02:22:45.966Z,20.80
2019-01-30T02:25:13.475Z,19.57
2019-01-30T02:27:40.950Z,19.20
2019-01-30T02:30:12.723Z,21.30
2019-01-30T02:32:40.218Z,19.30
2019-01-30T02:35:07.709Z,18.77
2019-01-30T02:37:35.192Z,21.30
2019-01-30T02:40:02.755Z,20.20
2019-01-30T02:42:30.367Z,19.93
2019-01-30T02:44:57.918Z,22.80
2019-01-30T02:47:25.478Z,21.87
2019-01-30T02:49:52.980Z,22.73
2019-01-30T02:52:20.456Z,22.37
2019-01-30T02:54:47.951Z,21.43
2019-01-30T02:57:15.455Z,21.87
2019-01-30T02:59:42.942Z,23.17
2019-01-30T03:02:12.067Z,23.73
2019-01-30T03:04:39.632Z,24.60
2019-01-30T03:07:07.109Z,22.70
2019-01-30T03:09:34.579Z,22.90
2019-01-30T03:12:02.091Z,23.27
2019-01-30T03:14:29.594Z,22.50
2019-01-30T03:16:57.096Z,21.50
2019-01-30T03:19:24.632Z,24.57
2019-01-30T03:21:52.110Z,24.87
2019-01-30T03:24:19.700Z,23.30
2019-01-30T03:26:47.178Z,24.60
2019-01-30T03:29:14.651Z,22.37
2019-01-30T03:31:42.161Z,23.87
2019-01-30T03:34:09.642Z,24.50
2019-01-30T03:36:37.176Z,26.30
2019-01-30T03:39:06.155Z,23.77
2019-01-30T03:41:33.626Z,24.50
2019-01-30T03:44:01.151Z,23.83
2019-01-30T03:46:28.640Z,24.90
2019-01-30T03:48:56.105Z,23.50
2019-01-30T03:51:23.590Z,24.70
2019-01-30T03:53:51.122Z,24.50
2019-01-30T03:56:18.599Z,24.97
2019-01-30T03:58:46.073Z,22.80
2019-01-30T04:01:13.637Z,24.67
2019-01-30T04:03:41.099Z,26.80
2019-01-30T04:06:08.570Z,24.77
2019-01-30T04:08:36.078Z,26.10
2019-01-30T04:11:03.472Z,26.73
2019-01-30T04:13:30.945Z,25.63
2019-01-30T04:15:58.514Z,24.50
2019-01-30T04:18:25.996Z,25.57
2019-01-30T04:20:53.474Z,25.17
2019-01-30T04:23:20.967Z,27.00
2019-01-30T04:25:48.482Z,24.13
2019-01-30T04:28:15.961Z,27.80
2019-01-30T04:30:43.440Z,25.93
2019-01-30T04:33:10.929Z,25.37
2019-01-30T04:35:38.405Z,24.53
2019-01-30T04:38:05.867Z,24.20
2019-01-30T04:40:33.390Z,26.30
2019-01-30T04:43:00.865Z,22.67
2019-01-30T04:45:28.425Z,23.90
2019-01-30T04:47:55.929Z,24.47
2019-01-30T04:50:23.481Z,24.07
2019-01-30T04:52:50.959Z,25.43
2019-01-30T04:55:18.542Z,29.20
2019-01-30T04:57:46.008Z,24.80
2019-01-30T05:00:18.013Z,22.97
2019-01-30T05:02:45.511Z,24.47
2019-01-30T05:05:13.397Z,25.30
2019-01-30T05:07:40.966Z,23.20
2019-01-30T05:10:09.797Z,24.63
2019-01-30T05:12:37.345Z,23.43
2019-01-30T05:15:06.271Z,22.60
2019-01-30T05:17:33.830Z,22.63
2019-01-30T05:20:01.305Z,24.47
2019-01-30T05:22:28.835Z,24.97
2019-01-30T05:24:56.307Z,22.20
2019-01-30T05:27:23.764Z,22.90
2019-01-30T05:29:51.290Z,23.03
2019-01-30T05:32:18.751Z,23.43
2019-01-30T05:34:46.217Z,22.90
2019-01-30T05:37:13.789Z,22.63
2019-01-30T05:39:41.248Z,25.73
2019-01-30T05:42:08.726Z,24.40
2019-01-30T05:44:36.226Z,24.57
2019-01-30T05:47:03.700Z,22.63
2019-01-30T05:49:31.165Z,23.90
2019-01-30T05:51:58.661Z,24.23
2019-01-30T05:54:26.124Z,23.03
2019-01-30T05:56:53.588Z,23.50
2019-01-30T05:59:21.148Z,22.10
2019-01-30T06:01:48.619Z,22.30
2019-01-30T06:04:16.154Z,23.60
2019-01-30T06:06:43.711Z,22.30
2019-01-30T06:09:11.181Z,20.60
2019-01-30T06:11:38.652Z,20.20
2019-01-30T06:14:06.146Z,21.17
2019-01-30T06:16:33.623Z,22.47
2019-01-30T06:19:01.102Z,21.80
2019-01-30T06:21:28.606Z,19.70
2019-01-30T06:23:56.074Z,20.47
2019-01-30T06:26:23.575Z,19.03
2019-01-30T06:28:51.085Z,19.50
2019-01-30T06:31:20.047Z,20.50
2019-01-30T06:33:47.600Z,18.83
2019-01-30T06:36:16.596Z,20.63
2019-01-30T06:38:44.057Z,19.37
2019-01-30T06:41:11.523Z,18.93
2019-01-30T06:43:39.012Z,18.90
2019-01-30T06:46:06.471Z,20.30
2019-01-30T06:48:33.938Z,17.70
2019-01-30T06:51:01.439Z,18.43
2019-01-30T06:53:28.916Z,18.60
2019-01-30T06:55:56.388Z,18.47
2019-01-30T06:58:23.882Z,19.73
2019-01-30T07:00:52.792Z,18.63
2019-01-30T07:03:20.428Z,17.80
2019-01-30T07:05:47.992Z,17.27
2019-01-30T07:08:15.456Z,16.97
2019-01-30T07:10:42.852Z,16.67
2019-01-30T07:13:10.349Z,19.20
2019-01-30T07:15:37.815Z,18.00
2019-01-30T07:18:05.293Z,17.50
2019-01-30T07:20:32.855Z,17.90
2019-01-30T07:23:00.320Z,17.80
2019-01-30T07:25:27.787Z,17.67
2019-01-30T07:27:55.298Z,18.30
2019-01-30T07:30:24.266Z,17.53
2019-01-30T07:32:51.729Z,19.10
2019-01-30T07:35:19.323Z,17.73
2019-01-30T07:37:46.783Z,19.27
2019-01-30T07:40:15.193Z,19.30
2019-01-30T07:42:42.683Z,18.73
2019-01-30T07:45:11.618Z,19.10
2019-01-30T07:47:39.084Z,18.50
2019-01-30T07:50:07.691Z,17.53
2019-01-30T07:52:35.156Z,17.93
2019-01-30T07:55:02.705Z,20.27
2019-01-30T07:57:30.205Z,19.20
2019-01-30T07:59:57.687Z,17.70
2019-01-30T08:02:25.156Z,18.97
2019-01-30T08:04:52.649Z,20.30
2019-01-30T08:07:20.119Z,20.03
2019-01-30T08:09:47.685Z,19.37
2019-01-30T08:12:15.467Z,19.27
2019-01-30T08:14:42.959Z,20.50
2019-01-30T08:17:10.432Z,18.80
2019-01-30T08:19:37.948Z,18.97
2019-01-30T08:22:05.429Z,19.53
2019-01-30T08:24:32.999Z,19.67
2019-01-30T08:27:00.777Z,19.83
2019-01-30T08:29:28.421Z,18.80
2019-01-30T08:31:55.922Z,18.33
2019-01-30T08:34:23.351Z,17.63
2019-01-30T08:36:52.368Z,17.80
2019-01-30T08:39:19.851Z,21.17
2019-01-30T08:41:47.405Z,20.00
2019-01-30T08:44:14.991Z,17.93
2019-01-30T08:46:42.679Z,19.10
2019-01-30T08:49:10.122Z,18.90
2019-01-30T08:51:37.694Z,18.40
2019-01-30T08:54:05.256Z,19.63
2019-01-30T08:56:38.754Z,18.80
2019-01-30T08:59:01.949Z,19.17
2019-01-30T09:01:29.415Z,17.70
2019-01-30T09:03:56.985Z,18.97
2019-01-30T09:06:24.485Z,20.20
2019-01-30T09:08:51.962Z,19.23
2019-01-30T09:11:19.420Z,19.40
2019-01-30T09:13:46.915Z,20.37
2019-01-30T09:16:14.381Z,19.90
2019-01-30T09:18:41.925Z,21.60
2019-01-30T09:21:09.416Z,22.40
2019-01-30T09:23:36.912Z,22.77
2019-01-30T09:26:04.461Z,21.33
2019-01-30T09:28:31.922Z,21.50
2019-01-30T09:30:59.429Z,22.87
2019-01-30T09:33:26.894Z,22.93
2019-01-30T09:35:54.357Z,21.53
2019-01-30T09:38:21.916Z,22.77
2019-01-30T09:40:49.371Z,22.50
2019-01-30T09:43:16.904Z,20.80
2019-01-30T09:45:44.366Z,23.57
2019-01-30T09:48:11.863Z,21.30
2019-01-30T09:50:39.334Z,21.00
2019-01-30T09:53:06.918Z,22.70
2019-01-30T09:55:34.415Z,20.50
2019-01-30T09:58:01.879Z,21.70
2019-01-30T10:00:33.192Z,22.90
2019-01-30T10:03:00.693Z,20.53
2019-01-30T10:05:28.157Z,22.90
2019-01-30T10:07:55.692Z,21.80
2019-01-30T10:10:30.686Z,21.33
2019-01-30T10:12:58.261Z,21.00
2019-01-30T10:15:27.247Z,21.40
2019-01-30T10:17:54.742Z,22.50
2019-01-30T10:20:23.310Z,21.43
2019-01-30T10:22:50.775Z,22.60
2019-01-30T10:25:18.268Z,21.17
2019-01-30T10:27:45.744Z,20.90
2019-01-30T10:30:14.923Z,23.13
2019-01-30T10:32:42.417Z,20.37
2019-01-30T10:35:10.147Z,22.40
2019-01-30T10:37:37.611Z,20.03
2019-01-30T10:40:06.578Z,19.37
2019-01-30T10:42:34.114Z,20.27
2019-01-30T10:45:01.591Z,21.50
2019-01-30T10:47:29.174Z,21.70
2019-01-30T10:49:56.647Z,19.90
2019-01-30T10:52:24.103Z,21.43
2019-01-30T10:54:53.251Z,20.33
2019-01-30T10:57:20.722Z,20.40
2019-01-30T10:59:48.201Z,20.90
2019-01-30T11:02:15.694Z,19.33
2019-01-30T11:04:43.163Z,19.63
2019-01-30T11:07:10.640Z,19.67
2019-01-30T11:09:38.155Z,20.10
2019-01-30T11:12:05.615Z,22.00
2019-01-30T11:14:33.085Z,19.70
2019-01-30T11:17:00.654Z,21.97
2019-01-30T11:19:28.073Z,19.17
2019-01-30T11:21:55.600Z,19.10
2019-01-30T11:24:23.106Z,18.47
2019-01-30T11:26:50.570Z,20.70
2019-01-30T11:29:18.048Z,19.90
2019-01-30T11:31:45.559Z,20.77
2019-01-30T11:34:13.020Z,21.30
2019-01-30T11:36:40.567Z,19.80
2019-01-30T11:39:08.055Z,17.30
2019-01-30T11:41:35.521Z,20.73
2019-01-30T11:44:03.005Z,19.90
2019-01-30T11:46:30.503Z,18.40
2019-01-30T11:48:57.969Z,17.97
2019-01-30T11:51:25.440Z,16.57
2019-01-30T11:53:52.928Z,17.57
2019-01-30T11:56:20.393Z,17.43
2019-01-30T11:58:47.852Z,17.57
2019-01-30T12:01:15.720Z,17.70
2019-01-30T12:03:43.256Z,16.60
2019-01-30T12:06:10.744Z,15.10
2019-01-30T12:08:38.241Z,15.87
2019-01-30T12:11:05.706Z,16.07
2019-01-30T12:13:33.196Z,20.03
2019-01-30T12:16:00.688Z,16.60
2019-01-30T12:18:28.166Z,15.00
2019-01-30T12:20:55.631Z,16.47
2019-01-30T12:23:23.139Z,17.97
2019-01-30T12:25:50.623Z,17.50
2019-01-30T12:28:18.078Z,18.27
2019-01-30T12:30:45.632Z,19.20
2019-01-30T12:33:13.096Z,17.67
2019-01-30T12:35:40.565Z,17.97
2019-01-30T12:38:08.055Z,18.93
2019-01-30T12:40:35.515Z,17.53
2019-01-30T12:43:03.005Z,17.47
2019-01-30T12:45:31.943Z,19.80
2019-01-30T12:47:59.348Z,19.77
2019-01-30T12:50:27.044Z,17.20
2019-01-30T12:52:54.504Z,18.80
2019-01-30T12:55:21.983Z,19.50
2019-01-30T12:57:49.585Z,19.63
2019-01-30T13:00:18.163Z,20.40
2019-01-30T13:02:45.671Z,22.00
2019-01-30T13:05:13.582Z,21.27
2019-01-30T13:07:40.956Z,19.70
2019-01-30T13:10:09.087Z,19.57
2019-01-30T13:12:36.587Z,21.10
2019-01-30T13:15:05.581Z,18.23
2019-01-30T13:17:33.048Z,19.23
2019-01-30T13:20:00.554Z,19.53
2019-01-30T13:22:28.027Z,19.43
2019-01-30T13:24:55.499Z,19.47
2019-01-30T13:27:23.068Z,18.90
2019-01-30T13:29:50.560Z,18.57
2019-01-30T13:32:18.016Z,19.33
2019-01-30T13:34:49.007Z,19.80
2019-01-30T13:37:14.700Z,20.47
2019-01-30T13:39:42.172Z,19.93
2019-01-30T13:42:09.710Z,18.97
2019-01-30T13:44:37.277Z,19.10
2019-01-30T13:47:04.744Z,19.93
2019-01-30T13:49:32.204Z,18.90
2019-01-30T13:51:59.787Z,18.03
2019-01-30T13:54:27.249Z,19.63
2019-01-30T13:56:54.790Z,19.33
2019-01-30T13:59:22.287Z,18.27
2019-01-30T14:01:49.783Z,17.80
2019-01-30T14:04:17.262Z,19.63
2019-01-30T14:06:44.806Z,19.53
2019-01-30T14:09:12.333Z,19.00
2019-01-30T14:11:39.848Z,18.73
2019-01-30T14:14:07.493Z,17.37
2019-01-30T14:16:34.984Z,15.27
2019-01-30T14:19:02.522Z,14.07
2019-01-30T14:21:30.026Z,13.40
2019-01-30T14:23:57.468Z,13.77
2019-01-30T14:26:24.947Z,13.50
2019-01-30T14:28:52.451Z,14.50
2019-01-30T14:31:20.104Z,13.00
2019-01-30T14:33:47.627Z,13.73
2019-01-30T14:36:15.116Z,12.70
2019-01-30T14:38:42.596Z,12.70
2019-01-30T14:41:10.060Z,12.80
2019-01-30T14:43:37.564Z,12.17
2019-01-30T14:46:05.057Z,11.80
2019-01-30T14:48:32.485Z,13.13
2019-01-30T14:51:00.031Z,13.77
2019-01-30T14:53:27.556Z,12.93
2019-01-30T14:55:55.008Z,11.87
2019-01-30T14:58:24.855Z,11.57
2019-01-30T15:00:51.723Z,11.10
2019-01-30T15:03:19.165Z,10.63
2019-01-30T15:05:46.718Z,9.90
2019-01-30T15:08:14.187Z,12.53
2019-01-30T15:10:41.661Z,11.17
2019-01-30T15:13:09.321Z,11.00
2019-01-30T15:15:36.947Z,12.10
2019-01-30T15:18:04.593Z,13.87
2019-01-30T15:20:33.337Z,11.43
2019-01-30T15:23:00.963Z,13.43
2019-01-30T15:25:28.735Z,11.90
2019-01-30T15:27:56.529Z,12.40
2019-01-30T15:30:31.439Z,13.80
2019-01-30T15:32:58.913Z,14.27
2019-01-30T15:35:33.196Z,13.30
2019-01-30T15:37:55.680Z,14.77
2019-01-30T15:40:24.596Z,14.00
2019-01-30T15:42:52.100Z,13.60
2019-01-30T15:45:20.656Z,13.10
2019-01-30T15:47:48.157Z,15.70
2019-01-30T15:50:16.742Z,14.23
2019-01-30T15:52:44.204Z,14.70
2019-01-30T15:55:13.814Z,15.57
2019-01-30T15:57:42.075Z,15.60
2019-01-30T16:00:13.749Z,15.00
2019-01-30T16:02:41.299Z,15.10
2019-01-30T16:05:09.497Z,15.23
2019-01-30T16:07:36.980Z,15.90
2019-01-30T16:10:05.931Z,14.33
2019-01-30T16:12:33.447Z,16.73
2019-01-30T16:15:00.920Z,15.97
2019-01-30T16:17:28.370Z,15.90
2019-01-30T16:19:55.788Z,14.97
2019-01-30T16:22:23.384Z,16.20
2019-01-30T16:24:50.859Z,16.67
2019-01-30T16:27:18.365Z,16.30
2019-01-30T16:29:45.943Z,15.43
2019-01-30T16:32:13.423Z,15.90
2019-01-30T16:34:40.932Z,15.73
2019-01-30T16:37:08.403Z,16.70
2019-01-30T16:39:35.900Z,16.87
2019-01-30T16:42:03.380Z,17.03
2019-01-30T16:44:30.865Z,16.43
2019-01-30T16:46:58.369Z,18.00
2019-01-30T16:49:25.843Z,18.10
2019-01-30T16:51:53.311Z,17.00
2019-01-30T16:54:20.828Z,17.70
2019-01-30T16:56:48.377Z,19.23
2019-01-30T16:59:15.849Z,18.10
2019-01-30T17:01:43.352Z,18.33
2019-01-30T17:04:10.832Z,17.60
2019-01-30T17:06:38.306Z,16.43
2019-01-30T17:09:06.878Z,18.63
2019-01-30T17:11:34.408Z,18.37
2019-01-30T17:14:01.872Z,17.53
2019-01-30T17:16:29.395Z,18.10
2019-01-30T17:18:56.862Z,16.60
2019-01-30T17:21:24.346Z,17.30
2019-01-30T17:23:51.852Z,17.43
2019-01-30T17:26:19.324Z,19.47
2019-01-30T17:28:46.806Z,16.83
2019-01-30T17:31:14.308Z,16.30
2019-01-30T17:33:41.788Z,17.80
2019-01-30T17:36:18.150Z,17.57
2019-01-30T17:38:38.541Z,19.07
2019-01-30T17:41:06.529Z,18.43
2019-01-30T17:43:34.004Z,18.40
2019-01-30T17:46:01.552Z,17.53
2019-01-30T17:48:29.059Z,18.07
2019-01-30T17:50:56.548Z,17.47
2019-01-30T17:53:24.060Z,18.33
2019-01-30T17:55:51.567Z,17.37
2019-01-30T17:58:19.165Z,19.27
2019-01-30T18:00:51.072Z,18.43
2019-01-30T18:03:18.573Z,18.03
2019-01-30T18:05:46.159Z,17.83
2019-01-30T18:08:13.659Z,19.60
2019-01-30T18:10:41.153Z,18.70
2019-01-30T18:13:08.608Z,19.17
2019-01-30T18:15:36.173Z,19.00
2019-01-30T18:18:04.061Z,18.37
2019-01-30T18:20:31.581Z,19.27
2019-01-30T18:22:59.133Z,18.30
2019-01-30T18:25:26.812Z,19.57
2019-01-30T18:27:54.292Z,18.27
2019-01-30T18:30:22.480Z,18.03
2019-01-30T18:32:49.980Z,17.43
2019-01-30T18:35:17.438Z,18.00
2019-01-30T18:37:44.915Z,17.90
2019-01-30T18:40:13.825Z,16.50
2019-01-30T18:42:41.315Z,18.50
2019-01-30T18:45:10.552Z,18.13
2019-01-30T18:47:38.050Z,18.57
2019-01-30T18:50:07.016Z,18.67
2019-01-30T18:52:34.569Z,19.80
2019-01-30T18:55:02.095Z,18.70
2019-01-30T18:57:29.715Z,18.47
2019-01-30T18:59:57.136Z,21.13
2019-01-30T19:02:24.626Z,20.23
2019-01-30T19:04:52.191Z,18.73
2019-01-30T19:07:19.667Z,18.90
2019-01-30T19:09:47.155Z,20.03
2019-01-30T19:12:14.650Z,19.63
2019-01-30T19:14:42.149Z,18.13
2019-01-30T19:17:09.910Z,20.03
2019-01-30T19:19:37.447Z,18.80
2019-01-30T19:22:05.051Z,19.00
2019-01-30T19:24:32.523Z,19.10
2019-01-30T19:27:00.053Z,19.07
2019-01-30T19:29:27.864Z,19.93
2019-01-30T19:31:55.507Z,18.33
2019-01-30T19:34:23.005Z,19.17
2019-01-30T19:36:50.595Z,19.07
2019-01-30T19:39:18.065Z,19.33
2019-01-30T19:41:45.609Z,20.30
2019-01-30T19:44:13.313Z,19.27
2019-01-30T19:46:40.778Z,19.53
2019-01-30T19:49:08.253Z,18.70
2019-01-30T19:51:35.776Z,19.23
2019-01-30T19:54:03.594Z,20.10
2019-01-30T19:56:31.049Z,21.70
2019-01-30T19:58:58.540Z,24.17
2019-01-30T20:01:35.905Z,22.23
2019-01-30T20:03:55.162Z,21.73
2019-01-30T20:06:22.719Z,19.20
2019-01-30T20:08:50.208Z,18.63
2019-01-30T20:11:20.652Z,21.27
2019-01-30T20:13:48.187Z,21.60
2019-01-30T20:16:15.750Z,23.20
2019-01-30T20:18:43.227Z,22.23
2019-01-30T20:21:10.805Z,23.30
2019-01-30T20:23:38.276Z,24.17
2019-01-30T20:26:05.932Z,22.63
2019-01-30T20:28:33.514Z,22.13
2019-01-30T20:31:01.463Z,22.77
2019-01-30T20:33:29.154Z,23.57
2019-01-30T20:35:56.729Z,27.30
2019-01-30T20:38:24.204Z,25.67
2019-01-30T20:40:51.681Z,24.47
2019-01-30T20:43:19.280Z,23.00
2019-01-30T20:45:46.830Z,24.40
2019-01-30T20:48:14.317Z,24.00
2019-01-30T20:50:41.835Z,25.50
2019-01-30T20:53:09.320Z,24.53
2019-01-30T20:55:36.796Z,23.13
2019-01-30T20:58:04.559Z,23.73
2019-01-30T21:00:35.083Z,24.07
2019-01-30T21:03:02.337Z,25.67
2019-01-30T21:05:29.839Z,23.57
2019-01-30T21:07:57.313Z,24.80
2019-01-30T21:10:26.284Z,25.83
2019-01-30T21:12:53.779Z,24.47
2019-01-30T21:15:21.341Z,25.50
2019-01-30T21:17:48.895Z,24.77
2019-01-30T21:20:16.812Z,23.53
2019-01-30T21:22:44.298Z,22.27
2019-01-30T21:25:13.292Z,23.40
2019-01-30T21:27:40.789Z,24.47
2019-01-30T21:30:15.844Z,22.50
2019-01-30T21:32:43.299Z,24.20
2019-01-30T21:35:11.925Z,24.10
2019-01-30T21:37:48.649Z,24.03
2019-01-30T21:40:10.044Z,22.60
2019-01-30T21:42:37.556Z,23.30
2019-01-30T21:45:06.708Z,23.93
2019-01-30T21:47:34.182Z,24.33
2019-01-30T21:50:01.684Z,24.53
2019-01-30T21:52:29.191Z,23.70
2019-01-30T21:54:56.674Z,24.70
2019-01-30T21:57:24.185Z,24.30
2019-01-30T21:59:51.660Z,26.10
2019-01-30T22:02:19.156Z,23.87
2019-01-30T22:04:46.644Z,24.17
2019-01-30T22:07:14.197Z,25.23
2019-01-30T22:09:41.664Z,24.10
2019-01-30T22:12:09.247Z,25.20
2019-01-30T22:14:36.721Z,25.57
2019-01-30T22:17:04.341Z,26.00
2019-01-30T22:19:31.920Z,24.40
2019-01-30T22:21:59.404Z,25.20
2019-01-30T22:24:26.877Z,24.60
2019-01-30T22:26:54.404Z,25.10
2019-01-30T22:29:21.865Z,24.67
2019-01-30T22:31:49.332Z,25.17
2019-01-30T22:34:16.858Z,24.70
2019-01-30T22:36:44.402Z,22.20
2019-01-30T22:39:14.399Z,24.40
2019-01-30T22:41:42.041Z,25.43
2019-01-30T22:44:09.595Z,25.90
2019-01-30T22:46:37.107Z,24.13
2019-01-30T22:49:04.673Z,26.53
2019-01-30T22:51:32.147Z,22.60
2019-01-30T22:53:59.685Z,25.13
2019-01-30T22:56:27.224Z,23.50
2019-01-30T22:58:54.788Z,25.37
2019-01-30T23:01:23.842Z,24.40
2019-01-30T23:03:55.956Z,25.20
2019-01-30T23:06:40.116Z,24.87
2019-01-30T23:09:09.071Z,26.10
2019-01-30T23:11:38.011Z,27.10
2019-01-30T23:14:05.773Z,25.30
2019-01-30T23:16:37.744Z,25.90
2019-01-30T23:19:12.686Z,25.57
2019-01-30T23:21:44.312Z,25.47
2019-01-30T23:24:19.435Z,27.23
2019-01-30T23:26:48.376Z,26.60
2019-01-30T23:29:34.005Z,25.33
2019-01-30T23:32:19.727Z,27.10
2019-01-30T23:34:48.722Z,27.17
2019-01-30T23:37:26.437Z,28.53
2019-01-30T23:39:55.405Z,26.80
2019-01-30T23:42:40.877Z,26.87
2019-01-30T23:45:25.166Z,27.00
2019-01-30T23:48:06.183Z,25.40
2019-01-30T23:50:35.174Z,26.30
2019-01-30T23:53:07.122Z,26.40
2019-01-30T23:55:36.541Z,25.47
2019-01-30T23:58:05.602Z,26.33
